sensor_id;sensor_type;location;lat;lon;timestamp;pressure;altitude;pressure_sealevel;temperature;humidity
46710;BME280;32442;51.514;-0.178;2023-02-14T00:02:12;102984.94;;;21.75;40.12
46710;BME280;32442;51.514;-0.178;2023-02-14T00:04:39;102983.78;;;21.76;40.36
46710;BME280;32442;51.514;-0.178;2023-02-14T00:07:10;102982.38;;;21.73;40.56
46710;BME280;32442;51.514;-0.178;2023-02-14T00:09:37;102979.56;;;21.73;40.40
46710;BME280;32442;51.514;-0.178;2023-02-14T00:12:04;102973.94;;;21.73;40.55
46710;BME280;32442;51.514;-0.178;2023-02-14T00:14:31;102972.22;;;21.72;40.92
46710;BME280;32442;51.514;-0.178;2023-02-14T00:17:02;102979.81;;;21.72;40.70
46710;BME280;32442;51.514;-0.178;2023-02-14T00:19:29;102972.78;;;21.69;40.81
46710;BME280;32442;51.514;-0.178;2023-02-14T00:22:00;102978.41;;;21.69;41.18
46710;BME280;32442;51.514;-0.178;2023-02-14T00:24:27;102985.13;;;21.68;40.82
46710;BME280;32442;51.514;-0.178;2023-02-14T00:26:54;102982.00;;;21.65;41.29
46710;BME280;32442;51.514;-0.178;2023-02-14T00:29:23;102982.56;;;21.62;41.35
46710;BME280;32442;51.514;-0.178;2023-02-14T00:31:50;102976.06;;;21.61;41.44
46710;BME280;32442;51.514;-0.178;2023-02-14T00:34:17;102972.66;;;21.59;41.39
46710;BME280;32442;51.514;-0.178;2023-02-14T00:36:46;102967.03;;;21.59;41.21
46710;BME280;32442;51.514;-0.178;2023-02-14T00:39:14;102969.28;;;21.57;41.78
46710;BME280;32442;51.514;-0.178;2023-02-14T00:41:42;102961.97;;;21.56;41.71
46710;BME280;32442;51.514;-0.178;2023-02-14T00:44:12;102968.09;;;21.53;41.70
46710;BME280;32442;51.514;-0.178;2023-02-14T00:46:39;102964.47;;;21.53;41.50
46710;BME280;32442;51.514;-0.178;2023-02-14T00:49:06;102964.97;;;21.50;41.80
46710;BME280;32442;51.514;-0.178;2023-02-14T00:51:33;102965.25;;;21.48;41.87
46710;BME280;32442;51.514;-0.178;2023-02-14T00:54:00;102975.91;;;21.46;42.10
46710;BME280;32442;51.514;-0.178;2023-02-14T00:56:29;102973.63;;;21.43;42.20
46710;BME280;32442;51.514;-0.178;2023-02-14T00:58:55;102959.53;;;21.38;42.03
46710;BME280;32442;51.514;-0.178;2023-02-14T01:01:22;102965.66;;;21.35;42.48
46710;BME280;32442;51.514;-0.178;2023-02-14T01:03:49;102965.34;;;21.32;42.57
46710;BME280;32442;51.514;-0.178;2023-02-14T01:06:16;102966.44;;;21.30;42.09
46710;BME280;32442;51.514;-0.178;2023-02-14T01:08:43;102962.81;;;21.30;42.17
46710;BME280;32442;51.514;-0.178;2023-02-14T01:11:13;102957.44;;;21.28;42.28
46710;BME280;32442;51.514;-0.178;2023-02-14T01:13:43;102948.41;;;21.26;42.72
46710;BME280;32442;51.514;-0.178;2023-02-14T01:16:11;102948.09;;;21.23;42.31
46710;BME280;32442;51.514;-0.178;2023-02-14T01:18:45;102953.16;;;21.21;42.59
46710;BME280;32442;51.514;-0.178;2023-02-14T01:21:13;102955.63;;;21.17;42.36
46710;BME280;32442;51.514;-0.178;2023-02-14T01:23:40;102954.78;;;21.17;42.73
46710;BME280;32442;51.514;-0.178;2023-02-14T01:26:10;102945.78;;;21.15;42.36
46710;BME280;32442;51.514;-0.178;2023-02-14T01:28:37;102945.16;;;21.13;42.40
46710;BME280;32442;51.514;-0.178;2023-02-14T01:31:05;102939.81;;;21.11;42.71
46710;BME280;32442;51.514;-0.178;2023-02-14T01:33:33;102942.63;;;21.11;42.83
46710;BME280;32442;51.514;-0.178;2023-02-14T01:36:00;102944.81;;;21.09;42.86
46710;BME280;32442;51.514;-0.178;2023-02-14T01:38:28;102946.22;;;21.07;43.03
46710;BME280;32442;51.514;-0.178;2023-02-14T01:40:55;102950.13;;;21.06;42.98
46710;BME280;32442;51.514;-0.178;2023-02-14T01:43:23;102953.19;;;21.04;43.10
46710;BME280;32442;51.514;-0.178;2023-02-14T01:45:52;102953.72;;;21.01;42.90
46710;BME280;32442;51.514;-0.178;2023-02-14T01:48:19;102943.34;;;21.02;43.34
46710;BME280;32442;51.514;-0.178;2023-02-14T01:50:47;102947.78;;;20.98;43.34
46710;BME280;32442;51.514;-0.178;2023-02-14T01:53:17;102943.03;;;20.98;42.89
46710;BME280;32442;51.514;-0.178;2023-02-14T01:55:47;102939.63;;;20.96;43.16
46710;BME280;32442;51.514;-0.178;2023-02-14T01:58:18;102943.81;;;20.94;43.17
46710;BME280;32442;51.514;-0.178;2023-02-14T02:00:46;102936.19;;;20.94;43.40
46710;BME280;32442;51.514;-0.178;2023-02-14T02:03:17;102948.59;;;20.93;43.33
46710;BME280;32442;51.514;-0.178;2023-02-14T02:05:46;102935.03;;;20.90;43.43
46710;BME280;32442;51.514;-0.178;2023-02-14T02:08:13;102936.50;;;20.93;42.98
46710;BME280;32442;51.514;-0.178;2023-02-14T02:10:41;102928.00;;;20.88;43.24
46710;BME280;32442;51.514;-0.178;2023-02-14T02:13:12;102929.09;;;20.86;43.31
46710;BME280;32442;51.514;-0.178;2023-02-14T02:38:12;102924.72;;;20.74;44.24
46710;BME280;32442;51.514;-0.178;2023-02-14T02:48:30;102926.13;;;20.71;44.53
46710;BME280;32442;51.514;-0.178;2023-02-14T02:51:00;102919.28;;;20.67;44.39
46710;BME280;32442;51.514;-0.178;2023-02-14T02:56:04;102922.09;;;20.67;44.41
46710;BME280;32442;51.514;-0.178;2023-02-14T03:01:06;102916.44;;;20.62;44.90
46710;BME280;32442;51.514;-0.178;2023-02-14T03:03:34;102915.59;;;20.62;44.81
46710;BME280;32442;51.514;-0.178;2023-02-14T03:06:06;102910.22;;;20.60;44.66
46710;BME280;32442;51.514;-0.178;2023-02-14T03:08:33;102911.63;;;20.58;44.46
46710;BME280;32442;51.514;-0.178;2023-02-14T03:11:00;102902.06;;;20.59;44.40
46710;BME280;32442;51.514;-0.178;2023-02-14T03:23:28;102905.06;;;20.52;44.73
46710;BME280;32442;51.514;-0.178;2023-02-14T03:28:29;102910.38;;;20.49;44.56
46710;BME280;32442;51.514;-0.178;2023-02-14T03:35:59;102903.84;;;20.43;44.59
46710;BME280;32442;51.514;-0.178;2023-02-14T03:38:30;102906.66;;;20.43;44.65
46710;BME280;32442;51.514;-0.178;2023-02-14T03:41:00;102903.22;;;20.41;44.86
46710;BME280;32442;51.514;-0.178;2023-02-14T03:43:30;102898.16;;;20.38;44.77
46710;BME280;32442;51.514;-0.178;2023-02-14T03:46:00;102900.34;;;20.36;44.72
46710;BME280;32442;51.514;-0.178;2023-02-14T03:48:30;102903.44;;;20.34;44.64
46710;BME280;32442;51.514;-0.178;2023-02-14T03:50:57;102900.88;;;20.33;44.94
46710;BME280;32442;51.514;-0.178;2023-02-14T03:53:27;102900.63;;;20.34;45.07
46710;BME280;32442;51.514;-0.178;2023-02-14T03:58:26;102900.28;;;20.31;44.87
46710;BME280;32442;51.514;-0.178;2023-02-14T04:00:56;102904.69;;;20.27;44.67
46710;BME280;32442;51.514;-0.178;2023-02-14T04:03:26;102899.34;;;20.25;45.09
46710;BME280;32442;51.514;-0.178;2023-02-14T04:05:54;102891.78;;;20.26;44.99
46710;BME280;32442;51.514;-0.178;2023-02-14T04:08:22;102889.47;;;20.23;45.09
46710;BME280;32442;51.514;-0.178;2023-02-14T04:10:50;102890.00;;;20.20;45.15
46710;BME280;32442;51.514;-0.178;2023-02-14T04:13:18;102893.66;;;20.20;44.96
46710;BME280;32442;51.514;-0.178;2023-02-14T04:15:45;102888.03;;;20.20;44.81
46710;BME280;32442;51.514;-0.178;2023-02-14T04:18:12;102893.06;;;20.18;45.29
46710;BME280;32442;51.514;-0.178;2023-02-14T04:20:47;102894.75;;;20.19;44.83
46710;BME280;32442;51.514;-0.178;2023-02-14T04:23:13;102895.84;;;20.18;44.64
46710;BME280;32442;51.514;-0.178;2023-02-14T04:25:40;102893.06;;;20.18;44.73
46710;BME280;32442;51.514;-0.178;2023-02-14T04:28:09;102895.28;;;20.16;44.84
46710;BME280;32442;51.514;-0.178;2023-02-14T04:30:36;102897.50;;;20.14;44.82
46710;BME280;32442;51.514;-0.178;2023-02-14T04:33:05;102892.97;;;20.13;44.46
46710;BME280;32442;51.514;-0.178;2023-02-14T04:35:34;102896.91;;;20.12;44.57
46710;BME280;32442;51.514;-0.178;2023-02-14T04:38:01;102901.06;;;20.10;44.83
46710;BME280;32442;51.514;-0.178;2023-02-14T04:40:28;102888.41;;;20.07;44.56
46710;BME280;32442;51.514;-0.178;2023-02-14T04:42:56;102887.81;;;20.05;44.96
46710;BME280;32442;51.514;-0.178;2023-02-14T04:45:25;102897.34;;;20.04;44.57
46710;BME280;32442;51.514;-0.178;2023-02-14T04:47:52;102893.09;;;20.02;44.58
46710;BME280;32442;51.514;-0.178;2023-02-14T04:50:19;102891.13;;;20.02;44.92
46710;BME280;32442;51.514;-0.178;2023-02-14T04:52:48;102896.44;;;19.98;44.73
46710;BME280;32442;51.514;-0.178;2023-02-14T04:55:15;102896.44;;;19.98;45.03
46710;BME280;32442;51.514;-0.178;2023-02-14T04:57:42;102894.44;;;19.99;44.98
46710;BME280;32442;51.514;-0.178;2023-02-14T05:00:09;102893.63;;;19.98;44.53
46710;BME280;32442;51.514;-0.178;2023-02-14T05:02:36;102893.53;;;19.93;44.64
46710;BME280;32442;51.514;-0.178;2023-02-14T05:05:03;102897.19;;;19.94;44.85
46710;BME280;32442;51.514;-0.178;2023-02-14T05:07:30;102900.78;;;19.89;44.80
46710;BME280;32442;51.514;-0.178;2023-02-14T05:09:57;102901.25;;;19.86;44.84
46710;BME280;32442;51.514;-0.178;2023-02-14T05:12:24;102896.75;;;19.85;44.72
46710;BME280;32442;51.514;-0.178;2023-02-14T05:14:51;102902.13;;;19.87;44.68
46710;BME280;32442;51.514;-0.178;2023-02-14T05:17:18;102904.34;;;19.85;45.07
46710;BME280;32442;51.514;-0.178;2023-02-14T05:19:45;102908.25;;;19.84;44.91
46710;BME280;32442;51.514;-0.178;2023-02-14T05:22:14;102909.59;;;19.81;45.36
46710;BME280;32442;51.514;-0.178;2023-02-14T05:24:43;102913.78;;;19.79;45.29
46710;BME280;32442;51.514;-0.178;2023-02-14T05:27:10;102900.59;;;19.79;45.06
46710;BME280;32442;51.514;-0.178;2023-02-14T05:29:37;102901.94;;;19.77;45.00
46710;BME280;32442;51.514;-0.178;2023-02-14T05:32:04;102900.28;;;19.76;45.10
46710;BME280;32442;51.514;-0.178;2023-02-14T05:34:31;102892.97;;;19.75;45.12
46710;BME280;32442;51.514;-0.178;2023-02-14T05:36:57;102910.03;;;19.73;45.44
46710;BME280;32442;51.514;-0.178;2023-02-14T05:39:24;102899.91;;;19.72;45.14
46710;BME280;32442;51.514;-0.178;2023-02-14T05:41:51;102895.25;;;19.78;45.37
46710;BME280;32442;51.514;-0.178;2023-02-14T05:44:20;102898.97;;;19.83;45.32
46710;BME280;32442;51.514;-0.178;2023-02-14T05:46:50;102902.72;;;19.89;46.17
46710;BME280;32442;51.514;-0.178;2023-02-14T05:49:16;102917.16;;;19.97;46.02
46710;BME280;32442;51.514;-0.178;2023-02-14T05:51:43;102898.72;;;20.02;45.81
46710;BME280;32442;51.514;-0.178;2023-02-14T05:54:10;102904.41;;;20.07;46.24
46710;BME280;32442;51.514;-0.178;2023-02-14T05:56:37;102908.38;;;20.11;45.92
46710;BME280;32442;51.514;-0.178;2023-02-14T05:59:04;102905.06;;;20.14;46.28
46710;BME280;32442;51.514;-0.178;2023-02-14T06:01:31;102902.56;;;20.17;46.57
46710;BME280;32442;51.514;-0.178;2023-02-14T06:03:58;102913.03;;;20.22;46.31
46710;BME280;32442;51.514;-0.178;2023-02-14T06:06:27;102901.03;;;20.26;46.50
46710;BME280;32442;51.514;-0.178;2023-02-14T06:08:54;102903.94;;;20.31;46.84
46710;BME280;32442;51.514;-0.178;2023-02-14T06:11:21;102896.44;;;20.37;46.77
46710;BME280;32442;51.514;-0.178;2023-02-14T06:13:47;102898.22;;;20.43;46.90
46710;BME280;32442;51.514;-0.178;2023-02-14T06:16:15;102898.28;;;20.48;46.92
46710;BME280;32442;51.514;-0.178;2023-02-14T06:18:42;102897.50;;;20.53;46.25
46710;BME280;32442;51.514;-0.178;2023-02-14T06:21:09;102891.97;;;20.58;46.26
46710;BME280;32442;51.514;-0.178;2023-02-14T06:23:36;102897.38;;;20.64;46.14
46710;BME280;32442;51.514;-0.178;2023-02-14T06:26:03;102902.44;;;20.67;45.64
46710;BME280;32442;51.514;-0.178;2023-02-14T06:28:30;102910.94;;;20.72;45.35
46710;BME280;32442;51.514;-0.178;2023-02-14T06:30:56;102906.50;;;20.76;45.04
46710;BME280;32442;51.514;-0.178;2023-02-14T06:33:24;102908.78;;;20.79;45.22
46710;BME280;32442;51.514;-0.178;2023-02-14T06:35:52;102906.31;;;20.83;45.18
46710;BME280;32442;51.514;-0.178;2023-02-14T06:38:20;102908.31;;;20.88;44.96
46710;BME280;32442;51.514;-0.178;2023-02-14T06:40:46;102908.06;;;20.89;44.91
46710;BME280;32442;51.514;-0.178;2023-02-14T06:43:16;102914.31;;;20.96;44.52
46710;BME280;32442;51.514;-0.178;2023-02-14T06:45:42;102920.09;;;20.84;41.77
46710;BME280;32442;51.514;-0.178;2023-02-14T06:48:09;102908.59;;;20.64;40.33
46710;BME280;32442;51.514;-0.178;2023-02-14T06:50:36;102912.97;;;20.77;41.37
46710;BME280;32442;51.514;-0.178;2023-02-14T06:53:03;102913.03;;;20.82;41.50
46710;BME280;32442;51.514;-0.178;2023-02-14T06:55:33;102927.41;;;20.85;41.59
46710;BME280;32442;51.514;-0.178;2023-02-14T06:58:00;102923.22;;;20.88;41.49
46710;BME280;32442;51.514;-0.178;2023-02-14T07:00:30;102911.69;;;20.90;41.64
46710;BME280;32442;51.514;-0.178;2023-02-14T07:02:57;102917.91;;;20.92;41.98
46710;BME280;32442;51.514;-0.178;2023-02-14T07:05:24;102921.59;;;20.92;42.22
46710;BME280;32442;51.514;-0.178;2023-02-14T07:07:54;102924.16;;;20.94;42.60
46710;BME280;32442;51.514;-0.178;2023-02-14T07:10:21;102922.50;;;20.98;42.86
46710;BME280;32442;51.514;-0.178;2023-02-14T07:12:47;102928.44;;;21.01;43.02
46710;BME280;32442;51.514;-0.178;2023-02-14T07:15:14;102927.66;;;21.06;43.29
46710;BME280;32442;51.514;-0.178;2023-02-14T07:17:41;102932.47;;;21.10;43.28
46710;BME280;32442;51.514;-0.178;2023-02-14T07:20:08;102933.69;;;21.14;42.97
46710;BME280;32442;51.514;-0.178;2023-02-14T07:22:36;102940.22;;;21.20;43.06
46710;BME280;32442;51.514;-0.178;2023-02-14T07:25:03;102937.72;;;21.23;43.48
46710;BME280;32442;51.514;-0.178;2023-02-14T07:27:30;102943.69;;;21.32;43.15
46710;BME280;32442;51.514;-0.178;2023-02-14T07:29:57;102945.94;;;21.30;41.94
46710;BME280;32442;51.514;-0.178;2023-02-14T07:32:26;102949.00;;;21.28;41.72
46710;BME280;32442;51.514;-0.178;2023-02-14T07:34:53;102952.69;;;21.29;41.00
46710;BME280;32442;51.514;-0.178;2023-02-14T07:37:21;102946.19;;;21.28;41.38
46710;BME280;32442;51.514;-0.178;2023-02-14T07:39:48;102956.59;;;21.28;41.03
46710;BME280;32442;51.514;-0.178;2023-02-14T07:42:14;102951.81;;;21.28;40.47
46710;BME280;32442;51.514;-0.178;2023-02-14T07:44:41;102942.00;;;21.31;40.45
46710;BME280;32442;51.514;-0.178;2023-02-14T07:47:09;102954.94;;;21.32;40.29
46710;BME280;32442;51.514;-0.178;2023-02-14T07:49:36;102957.75;;;21.32;40.04
46710;BME280;32442;51.514;-0.178;2023-02-14T07:52:03;102951.88;;;21.34;40.05
46710;BME280;32442;51.514;-0.178;2023-02-14T07:54:30;102955.25;;;21.36;39.98
46710;BME280;32442;51.514;-0.178;2023-02-14T07:56:58;102954.41;;;21.35;39.73
46710;BME280;32442;51.514;-0.178;2023-02-14T07:59:25;102953.84;;;21.33;39.55
46710;BME280;32442;51.514;-0.178;2023-02-14T08:01:52;102950.78;;;21.35;39.30
46710;BME280;32442;51.514;-0.178;2023-02-14T08:04:19;102962.84;;;21.35;39.39
46710;BME280;32442;51.514;-0.178;2023-02-14T08:06:47;102964.75;;;21.08;38.46
46710;BME280;32442;51.514;-0.178;2023-02-14T08:09:14;102957.78;;;21.10;38.39
46710;BME280;32442;51.514;-0.178;2023-02-14T08:11:51;102958.72;;;21.16;38.44
46710;BME280;32442;51.514;-0.178;2023-02-14T08:14:22;102959.81;;;21.15;38.61
46710;BME280;32442;51.514;-0.178;2023-02-14T08:16:50;102956.22;;;21.19;38.93
46710;BME280;32442;51.514;-0.178;2023-02-14T08:19:17;102962.09;;;21.18;41.27
46710;BME280;32442;51.514;-0.178;2023-02-14T08:21:44;102949.50;;;21.20;39.24
46710;BME280;32442;51.514;-0.178;2023-02-14T08:24:11;102958.78;;;21.21;39.37
46710;BME280;32442;51.514;-0.178;2023-02-14T08:26:38;102965.22;;;21.21;39.71
46710;BME280;32442;51.514;-0.178;2023-02-14T08:29:05;102973.41;;;21.23;39.51
46710;BME280;32442;51.514;-0.178;2023-02-14T08:31:32;102965.44;;;21.15;39.41
46710;BME280;32442;51.514;-0.178;2023-02-14T08:34:03;102969.97;;;21.16;39.44
46710;BME280;32442;51.514;-0.178;2023-02-14T08:36:31;102968.25;;;21.15;39.43
46710;BME280;32442;51.514;-0.178;2023-02-14T08:38:58;102969.59;;;21.12;39.19
46710;BME280;32442;51.514;-0.178;2023-02-14T08:41:25;102969.00;;;21.10;39.16
46710;BME280;32442;51.514;-0.178;2023-02-14T08:43:53;102962.22;;;21.06;39.08
46710;BME280;32442;51.514;-0.178;2023-02-14T08:46:20;102963.31;;;21.05;38.83
46710;BME280;32442;51.514;-0.178;2023-02-14T08:48:48;102960.47;;;21.00;38.82
46710;BME280;32442;51.514;-0.178;2023-02-14T08:51:16;102965.16;;;20.95;38.66
46710;BME280;32442;51.514;-0.178;2023-02-14T08:53:43;102964.31;;;20.94;38.66
46710;BME280;32442;51.514;-0.178;2023-02-14T08:56:13;102965.63;;;20.86;39.07
46710;BME280;32442;51.514;-0.178;2023-02-14T08:58:41;102960.78;;;20.82;39.07
46710;BME280;32442;51.514;-0.178;2023-02-14T09:03:36;102971.38;;;20.75;39.22
46710;BME280;32442;51.514;-0.178;2023-02-14T09:06:04;102970.25;;;20.76;38.98
46710;BME280;32442;51.514;-0.178;2023-02-14T09:08:32;102969.34;;;20.70;38.95
46710;BME280;32442;51.514;-0.178;2023-02-14T09:13:31;102970.38;;;20.64;39.55
46710;BME280;32442;51.514;-0.178;2023-02-14T09:16:02;102964.69;;;20.59;39.46
46710;BME280;32442;51.514;-0.178;2023-02-14T09:18:30;102958.75;;;20.56;39.37
46710;BME280;32442;51.514;-0.178;2023-02-14T09:20:57;102955.63;;;20.52;39.49
46710;BME280;32442;51.514;-0.178;2023-02-14T09:23:25;102953.06;;;20.51;39.59
46710;BME280;32442;51.514;-0.178;2023-02-14T09:28:22;102961.16;;;20.47;39.14
46710;BME280;32442;51.514;-0.178;2023-02-14T09:30:49;102955.81;;;20.46;39.09
46710;BME280;32442;51.514;-0.178;2023-02-14T09:33:19;102954.38;;;20.43;39.30
46710;BME280;32442;51.514;-0.178;2023-02-14T09:35:46;102965.00;;;20.41;39.40
46710;BME280;32442;51.514;-0.178;2023-02-14T09:38:17;102952.34;;;20.38;39.51
46710;BME280;32442;51.514;-0.178;2023-02-14T09:40:44;102956.25;;;20.37;39.40
46710;BME280;32442;51.514;-0.178;2023-02-14T09:45:39;102949.22;;;20.35;39.14
46710;BME280;32442;51.514;-0.178;2023-02-14T09:48:09;102942.47;;;20.36;39.48
46710;BME280;32442;51.514;-0.178;2023-02-14T09:55:42;102936.91;;;20.58;39.02
46710;BME280;32442;51.514;-0.178;2023-02-14T09:58:15;102933.03;;;20.64;38.95
46710;BME280;32442;51.514;-0.178;2023-02-14T10:00:47;102926.91;;;20.67;38.88
46710;BME280;32442;51.514;-0.178;2023-02-14T10:10:51;102929.09;;;20.86;38.38
46710;BME280;32442;51.514;-0.178;2023-02-14T10:15:57;102925.75;;;20.90;38.58
46710;BME280;32442;51.514;-0.178;2023-02-14T10:18:26;102924.16;;;20.94;38.33
46710;BME280;32442;51.514;-0.178;2023-02-14T10:20:57;102921.03;;;20.95;38.80
46710;BME280;32442;51.514;-0.178;2023-02-14T10:28:27;102922.56;;;21.03;38.52
46710;BME280;32442;51.514;-0.178;2023-02-14T10:31:00;102922.56;;;21.03;38.17
46710;BME280;32442;51.514;-0.178;2023-02-14T10:33:31;102921.16;;;21.05;38.23
46710;BME280;32442;51.514;-0.178;2023-02-14T10:36:02;102920.91;;;21.07;38.13
46710;BME280;32442;51.514;-0.178;2023-02-14T10:51:03;102919.88;;;21.13;38.10
46710;BME280;32442;51.514;-0.178;2023-02-14T10:56:03;102915.09;;;21.13;38.35
46710;BME280;32442;51.514;-0.178;2023-02-14T10:58:33;102911.19;;;21.14;37.97
46710;BME280;32442;51.514;-0.178;2023-02-14T11:03:31;102914.00;;;21.14;38.19
46710;BME280;32442;51.514;-0.178;2023-02-14T11:06:00;102917.91;;;21.13;38.38
46710;BME280;32442;51.514;-0.178;2023-02-14T11:08:30;102922.69;;;21.13;37.97
46710;BME280;32442;51.514;-0.178;2023-02-14T11:11:00;102916.81;;;21.14;38.30
46710;BME280;32442;51.514;-0.178;2023-02-14T11:15:59;102920.97;;;21.12;38.02
46710;BME280;32442;51.514;-0.178;2023-02-14T11:18:28;102912.81;;;21.10;38.35
46710;BME280;32442;51.514;-0.178;2023-02-14T11:20:59;102910.00;;;21.10;38.37
46710;BME280;32442;51.514;-0.178;2023-02-14T11:26:07;102906.31;;;21.10;38.40
46710;BME280;32442;51.514;-0.178;2023-02-14T11:28:36;102910.78;;;21.06;
46710;BME280;32442;51.514;-0.178;2023-02-14T11:31:09;102906.00;;;21.06;38.12
46710;BME280;32442;51.514;-0.178;2023-02-14T11:33:38;102901.25;;;21.07;37.98
46710;BME280;32442;51.514;-0.178;2023-02-14T11:36:11;102896.72;;;21.06;38.01
46710;BME280;32442;51.514;-0.178;2023-02-14T11:38:39;102893.59;;;21.02;38.10
46710;BME280;32442;51.514;-0.178;2023-02-14T11:41:08;102897.22;;;20.98;38.40
46710;BME280;32442;51.514;-0.178;2023-02-14T11:43:38;102892.16;;;21.00;38.19
46710;BME280;32442;51.514;-0.178;2023-02-14T11:48:34;102885.06;;;20.92;38.53
46710;BME280;32442;51.514;-0.178;2023-02-14T11:51:06;102890.41;;;20.94;38.64
46710;BME280;32442;51.514;-0.178;2023-02-14T11:56:04;102876.03;;;20.90;38.78
46710;BME280;32442;51.514;-0.178;2023-02-14T12:00:59;102874.84;;;20.86;38.60
46710;BME280;32442;51.514;-0.178;2023-02-14T12:03:31;102874.00;;;20.85;38.48
46710;BME280;32442;51.514;-0.178;2023-02-14T12:06:01;102863.91;;;20.84;38.65
46710;BME280;32442;51.514;-0.178;2023-02-14T12:08:29;102861.34;;;20.83;38.52
46710;BME280;32442;51.514;-0.178;2023-02-14T12:11:00;102857.69;;;20.82;38.70
46710;BME280;32442;51.514;-0.178;2023-02-14T12:13:28;102857.69;;;20.82;38.63
46710;BME280;32442;51.514;-0.178;2023-02-14T12:15:55;102852.06;;;20.82;38.79
46710;BME280;32442;51.514;-0.178;2023-02-14T12:20:55;102839.13;;;20.81;39.02
46710;BME280;32442;51.514;-0.178;2023-02-14T12:25:56;102836.31;;;20.81;39.15
46710;BME280;32442;51.514;-0.178;2023-02-14T12:28:27;102835.47;;;20.81;38.80
46710;BME280;32442;51.514;-0.178;2023-02-14T12:30:57;102832.66;;;20.81;39.20
46710;BME280;32442;51.514;-0.178;2023-02-14T12:33:25;102836.31;;;20.81;38.81
46710;BME280;32442;51.514;-0.178;2023-02-14T12:40:56;102820.84;;;20.79;39.20
46710;BME280;32442;51.514;-0.178;2023-02-14T12:46:01;102813.28;;;20.79;39.16
46710;BME280;32442;51.514;-0.178;2023-02-14T13:06:07;102799.75;;;20.76;39.03
46710;BME280;32442;51.514;-0.178;2023-02-14T13:21:07;102789.66;;;20.80;39.23
46710;BME280;32442;51.514;-0.178;2023-02-14T13:23:40;102789.66;;;20.80;39.26
46710;BME280;32442;51.514;-0.178;2023-02-14T13:26:10;102791.66;;;20.80;39.41
46710;BME280;32442;51.514;-0.178;2023-02-14T13:28:40;102784.03;;;20.80;39.48
46710;BME280;32442;51.514;-0.178;2023-02-14T13:31:11;102779.56;;;20.79;39.35
46710;BME280;32442;51.514;-0.178;2023-02-14T13:33:40;102781.22;;;20.80;39.54
46710;BME280;32442;51.514;-0.178;2023-02-14T13:36:11;102784.34;;;20.79;39.50
46710;BME280;32442;51.514;-0.178;2023-02-14T13:38:41;102780.41;;;20.80;39.24
46710;BME280;32442;51.514;-0.178;2023-02-14T13:41:10;102771.13;;;20.79;39.06
46710;BME280;32442;51.514;-0.178;2023-02-14T13:46:07;102753.94;;;20.76;39.12
46710;BME280;32442;51.514;-0.178;2023-02-14T13:48:35;102752.84;;;20.77;39.47
46710;BME280;32442;51.514;-0.178;2023-02-14T13:51:05;102751.72;;;20.78;39.03
46710;BME280;32442;51.514;-0.178;2023-02-14T13:56:02;102751.41;;;20.74;39.14
46710;BME280;32442;51.514;-0.178;2023-02-14T13:58:30;102757.88;;;20.75;39.34
46710;BME280;32442;51.514;-0.178;2023-02-14T14:00:58;102749.72;;;20.73;39.19
46710;BME280;32442;51.514;-0.178;2023-02-14T14:10:56;102734.25;;;20.71;39.50
46710;BME280;32442;51.514;-0.178;2023-02-14T14:20:53;102731.44;;;20.71;39.52
46710;BME280;32442;51.514;-0.178;2023-02-14T14:25:50;102729.75;;;20.70;39.12
46710;BME280;32442;51.514;-0.178;2023-02-14T14:28:19;102718.19;;;20.66;39.50
46710;BME280;32442;51.514;-0.178;2023-02-14T14:30:47;102710.03;;;20.65;39.55
46710;BME280;32442;51.514;-0.178;2023-02-14T14:38:15;102718.09;;;20.56;39.76
46710;BME280;32442;51.514;-0.178;2023-02-14T14:40:43;102711.38;;;20.57;39.37
46710;BME280;32442;51.514;-0.178;2023-02-14T14:45:39;102703.47;;;20.54;39.58
46710;BME280;32442;51.514;-0.178;2023-02-14T14:48:09;102702.09;;;20.57;39.86
46710;BME280;32442;51.514;-0.178;2023-02-14T14:50:38;102701.50;;;20.55;39.54
46710;BME280;32442;51.514;-0.178;2023-02-14T14:55:40;102702.03;;;20.52;39.51
46710;BME280;32442;51.514;-0.178;2023-02-14T15:00:44;102696.16;;;20.53;39.68
46710;BME280;32442;51.514;-0.178;2023-02-14T15:03:19;102694.19;;;20.54;39.88
46710;BME280;32442;51.514;-0.178;2023-02-14T15:05:49;102687.41;;;20.50;39.94
46710;BME280;32442;51.514;-0.178;2023-02-14T15:10:47;102685.41;;;20.45;39.97
46710;BME280;32442;51.514;-0.178;2023-02-14T15:13:14;102685.13;;;20.47;40.10
46710;BME280;32442;51.514;-0.178;2023-02-14T15:15:46;102681.72;;;20.45;40.19
46710;BME280;32442;51.514;-0.178;2023-02-14T15:18:15;102679.22;;;20.43;40.05
46710;BME280;32442;51.514;-0.178;2023-02-14T15:20:47;102683.72;;;20.44;40.18
46710;BME280;32442;51.514;-0.178;2023-02-14T15:23:15;102680.31;;;20.42;39.85
46710;BME280;32442;51.514;-0.178;2023-02-14T15:25:45;102676.41;;;20.43;40.06
46710;BME280;32442;51.514;-0.178;2023-02-14T15:28:14;102680.56;;;20.40;39.81
46710;BME280;32442;51.514;-0.178;2023-02-14T15:33:21;102677.78;;;20.40;40.00
46710;BME280;32442;51.514;-0.178;2023-02-14T15:35:49;102676.91;;;20.40;39.81
46710;BME280;32442;51.514;-0.178;2023-02-14T15:38:16;102669.03;;;20.37;40.25
46710;BME280;32442;51.514;-0.178;2023-02-14T15:40:44;102669.63;;;20.39;39.72
46710;BME280;32442;51.514;-0.178;2023-02-14T15:43:13;102671.00;;;20.36;40.18
46710;BME280;32442;51.514;-0.178;2023-02-14T15:45:41;102675.50;;;20.37;39.81
46710;BME280;32442;51.514;-0.178;2023-02-14T15:55:39;102662.25;;;20.33;40.37
46710;BME280;32442;51.514;-0.178;2023-02-14T16:00:41;102652.34;;;20.25;40.40
46710;BME280;32442;51.514;-0.178;2023-02-14T16:03:11;102653.69;;;20.23;40.17
46710;BME280;32442;51.514;-0.178;2023-02-14T16:05:44;102650.88;;;20.23;40.46
46710;BME280;32442;51.514;-0.178;2023-02-14T16:13:18;102649.19;;;20.22;40.38
46710;BME280;32442;51.514;-0.178;2023-02-14T16:18:17;102640.47;;;20.18;40.21
46710;BME280;32442;51.514;-0.178;2023-02-14T16:20:45;102636.25;;;20.16;40.50
46710;BME280;32442;51.514;-0.178;2023-02-14T16:25:45;102641.25;;;20.14;40.52